Time;durP1;ratioP1;P1;durP2;ratioP2;P2;SDS_P1;SDS_P2;PMS_P1;PMS_P2;Temp;Humidity;BMP_temperature;BMP_pressure;BME280_temperature;BME280_humidity;BME280_pressure;Samples;Min_cycle;Max_cycle;Signal;HPM_P1;HPM_P2
2023/04/08 00:01:38;;;;;;;8.15;1.90;;;30.30;22.40;;;;;;5029521;28;20089;-60
2023/04/08 00:04:04;;;;;;;5.13;2.55;;;30.20;22.70;;;;;;5026130;28;20483;-60
2023/04/08 00:06:31;;;;;;;8.63;2.30;;;30.20;22.90;;;;;;5030049;28;20083;-59
2023/04/08 00:08:57;;;;;;;12.43;2.13;;;30.20;23.20;;;;;;5029792;28;20074;-58
2023/04/08 00:11:24;;;;;;;10.13;2.22;;;29.80;23.10;;;;;;5029238;28;20081;-59
2023/04/08 00:13:50;;;;;;;12.23;2.08;;;29.90;23.70;;;;;;5028616;28;20088;-59
2023/04/08 00:16:16;;;;;;;5.63;1.98;;;29.80;23.20;;;;;;5029397;28;20094;-59
2023/04/08 00:18:43;;;;;;;15.70;3.05;;;29.80;23.30;;;;;;5028283;28;20061;-62
2023/04/08 00:21:09;;;;;;;10.82;2.00;;;29.80;24.20;;;;;;5028267;28;20218;-56
2023/04/08 00:23:36;;;;;;;7.85;2.15;;;29.60;23.00;;;;;;5028363;28;20065;-64
2023/04/08 00:26:02;;;;;;;6.47;2.20;;;29.50;23.00;;;;;;5024788;28;20459;-59
2023/04/08 00:28:28;;;;;;;10.32;2.45;;;29.30;22.90;;;;;;5025423;28;20061;-60
2023/04/08 00:30:55;;;;;;;10.93;2.55;;;29.40;23.90;;;;;;5028445;28;20870;-60
2023/04/08 00:33:23;;;;;;;18.63;3.03;;;29.30;23.20;;;;;;5029807;28;20413;-62
2023/04/08 00:35:50;;;;;;;6.03;2.63;;;29.20;23.40;;;;;;5029161;28;20111;-62
2023/04/08 00:38:16;;;;;;;12.15;2.40;;;29.10;23.10;;;;;;5029322;28;20485;-61
2023/04/08 00:40:43;;;;;;;12.55;2.60;;;29.10;24.20;;;;;;5028076;28;20067;-63
2023/04/08 00:43:09;;;;;;;5.20;2.15;;;29.10;24.10;;;;;;5028860;28;20515;-65
2023/04/08 00:45:36;;;;;;;15.45;3.20;;;29.00;22.90;;;;;;5028182;28;20098;-60
2023/04/08 00:48:03;;;;;;;5.93;1.90;;;29.00;23.00;;;;;;5029561;28;20113;-62
2023/04/08 00:50:30;;;;;;;9.73;2.50;;;28.90;23.30;;;;;;5027801;28;20159;-62
2023/04/08 00:52:56;;;;;;;9.93;2.75;;;28.90;23.20;;;;;;5025065;28;20496;-62
2023/04/08 00:55:22;;;;;;;10.68;2.10;;;28.90;23.30;;;;;;5028509;28;20066;-60
2023/04/08 00:57:49;;;;;;;7.50;2.33;;;28.80;23.20;;;;;;5028226;28;20066;-60
2023/04/08 01:00:15;;;;;;;9.77;2.88;;;28.70;23.10;;;;;;5028711;28;20099;-61
2023/04/08 01:03:02;;;;;;;18.60;3.13;;;28.70;23.60;;;;;;5026727;28;20089;-61
2023/04/08 01:06:09;;;;;;;9.57;2.92;;;28.70;23.10;;;;;;5027013;28;20139;-61
2023/04/08 01:08:39;;;;;;;11.07;2.60;;;28.50;23.10;;;;;;5028703;28;20426;-61
2023/04/08 01:11:11;;;;;;;10.07;2.05;;;28.50;23.50;;;;;;5027661;28;20123;-63
2023/04/08 01:13:40;;;;;;;11.27;2.45;;;28.30;23.40;;;;;;5028183;28;20075;-61
2023/04/08 01:16:11;;;;;;;13.27;2.38;;;28.30;24.10;;;;;;5027272;28;20087;-60
2023/04/08 01:18:38;;;;;;;8.80;2.55;;;28.20;24.10;;;;;;5027346;28;20081;-59
2023/04/08 01:21:06;;;;;;;20.80;2.63;;;28.20;24.60;;;;;;5028331;28;20113;-58
2023/04/08 01:23:59;;;;;;;7.30;2.42;;;28.00;24.40;;;;;;5027384;28;20063;-59
2023/04/08 01:26:29;;;;;;;13.38;2.55;;;27.80;23.70;;;;;;5028091;28;20133;-59
2023/04/08 01:28:59;;;;;;;8.65;2.60;;;27.60;24.00;;;;;;5028259;28;20091;-59
2023/04/08 01:31:27;;;;;;;6.63;2.38;;;27.50;24.40;;;;;;5027934;28;20094;-58
2023/04/08 01:33:54;;;;;;;14.23;2.80;;;27.40;24.60;;;;;;5028139;28;20572;-61
2023/04/08 01:36:22;;;;;;;12.00;2.60;;;27.10;24.20;;;;;;5027947;28;20123;-59
2023/04/08 01:38:49;;;;;;;13.20;2.85;;;27.10;24.40;;;;;;5029279;28;20082;-62
2023/04/08 01:41:18;;;;;;;16.48;3.13;;;26.90;24.90;;;;;;5026891;28;20135;-60
2023/04/08 01:43:45;;;;;;;18.50;3.17;;;26.80;25.10;;;;;;5027493;28;20450;-59
2023/04/08 01:46:12;;;;;;;17.88;3.03;;;26.70;25.00;;;;;;5027248;28;20088;-60
2023/04/08 01:48:40;;;;;;;14.25;2.97;;;26.60;25.40;;;;;;5027732;28;20111;-58
2023/04/08 01:51:08;;;;;;;15.25;3.10;;;26.60;25.40;;;;;;5026929;28;20076;-61
2023/04/08 01:53:34;;;;;;;15.73;3.22;;;26.50;25.40;;;;;;5024324;28;20124;-60
2023/04/08 01:56:11;;;;;;;10.65;3.05;;;26.30;25.20;;;;;;5026590;28;20068;-60
2023/04/08 01:58:42;;;;;;;12.85;3.00;;;26.10;25.70;;;;;;5027746;28;20095;-62
2023/04/08 02:01:16;;;;;;;14.75;2.80;;;26.00;26.00;;;;;;5027708;28;20080;-62
2023/04/08 02:03:45;;;;;;;13.50;3.05;;;25.90;26.90;;;;;;5025923;28;20107;-62
2023/04/08 02:06:12;;;;;;;19.95;2.97;;;25.80;26.80;;;;;;5026365;28;20095;-61
2023/04/08 02:08:38;;;;;;;17.92;3.63;;;25.70;26.80;;;;;;5028750;28;20167;-61
2023/04/08 02:11:05;;;;;;;10.98;3.08;;;25.60;27.00;;;;;;5028387;28;20077;-60
2023/04/08 02:13:32;;;;;;;19.10;3.45;;;25.50;27.20;;;;;;5027849;28;20207;-59
2023/04/08 02:16:22;;;;;;;15.15;3.50;;;25.30;27.00;;;;;;5027312;28;20073;-59
2023/04/08 02:19:03;;;;;;;31.55;4.35;;;25.30;27.20;;;;;;5027570;28;20072;-60
2023/04/08 02:21:37;;;;;;;15.65;4.10;;;25.10;27.30;;;;;;5026629;28;20204;-61
2023/04/08 02:24:07;;;;;;;20.73;3.97;;;25.00;27.20;;;;;;5025796;28;20564;-59
2023/04/08 02:26:36;;;;;;;17.15;3.90;;;24.80;27.50;;;;;;5027216;28;20142;-61
2023/04/08 02:29:04;;;;;;;19.48;4.00;;;24.70;27.80;;;;;;5027607;28;20179;-60
2023/04/08 02:31:32;;;;;;;13.88;3.45;;;24.70;28.80;;;;;;5027899;28;20061;-60
2023/04/08 02:33:59;;;;;;;14.90;3.88;;;24.50;28.80;;;;;;5027019;28;20544;-61
2023/04/08 02:36:26;;;;;;;32.22;4.45;;;24.40;28.90;;;;;;5027537;28;20087;-61
2023/04/08 02:38:52;;;;;;;29.88;4.40;;;24.20;29.30;;;;;;5028814;28;20096;-62
2023/04/08 02:41:20;;;;;;;25.17;4.35;;;24.10;29.20;;;;;;5026953;28;20552;-62
2023/04/08 02:43:46;;;;;;;14.40;4.05;;;24.00;30.00;;;;;;5027719;28;20429;-60
2023/04/08 02:46:13;;;;;;;19.25;4.78;;;24.00;29.00;;;;;;5027239;28;20069;-60
2023/04/08 02:48:39;;;;;;;18.88;4.70;;;24.00;29.40;;;;;;5027028;28;20104;-62
2023/04/08 02:51:06;;;;;;;19.48;6.18;;;23.90;29.50;;;;;;5027769;28;20080;-61
2023/04/08 02:53:32;;;;;;;26.70;6.10;;;23.80;29.80;;;;;;5024989;28;20085;-62
2023/04/08 02:55:59;;;;;;;25.23;5.45;;;23.80;29.60;;;;;;5026132;28;20069;-60
2023/04/08 02:58:25;;;;;;;21.40;5.90;;;23.70;30.00;;;;;;5027321;28;20444;-61
2023/04/08 03:00:52;;;;;;;25.25;7.75;;;23.70;30.00;;;;;;5026806;28;20076;-60
2023/04/08 03:03:18;;;;;;;23.80;7.50;;;23.70;29.80;;;;;;5027754;28;20151;-60
2023/04/08 03:05:45;;;;;;;20.95;6.97;;;23.60;29.90;;;;;;5027235;28;20065;-60
2023/04/08 03:08:11;;;;;;;29.60;7.88;;;23.50;30.00;;;;;;5029481;28;20533;-63
2023/04/08 03:10:37;;;;;;;31.27;7.40;;;23.50;30.30;;;;;;5031237;28;20073;-61
2023/04/08 03:13:04;;;;;;;24.52;7.05;;;23.50;31.20;;;;;;5030629;28;20526;-59
2023/04/08 03:15:30;;;;;;;24.00;6.40;;;23.40;30.90;;;;;;5030985;28;20167;-61
2023/04/08 03:17:57;;;;;;;30.33;6.35;;;23.40;30.60;;;;;;5030030;28;20160;-61
2023/04/08 03:20:23;;;;;;;21.17;5.07;;;23.40;31.50;;;;;;5030294;28;20073;-60
2023/04/08 03:22:50;;;;;;;21.55;5.68;;;23.40;31.80;;;;;;5029991;28;20093;-60
2023/04/08 03:25:16;;;;;;;19.80;4.85;;;23.30;32.00;;;;;;5029988;28;20081;-63
2023/04/08 03:27:43;;;;;;;18.60;5.10;;;23.20;33.20;;;;;;5030330;28;20083;-60
2023/04/08 03:30:09;;;;;;;18.65;5.00;;;23.20;32.80;;;;;;5030409;28;20540;-62
2023/04/08 03:32:36;;;;;;;20.05;5.18;;;23.20;33.10;;;;;;5030986;28;20179;-59
2023/04/08 03:35:03;;;;;;;13.38;4.53;;;23.20;33.50;;;;;;5029216;28;20080;-65
2023/04/08 03:37:29;;;;;;;18.35;4.40;;;23.20;34.20;;;;;;5030100;28;20499;-61
2023/04/08 03:39:56;;;;;;;22.83;4.93;;;23.20;35.20;;;;;;5030786;28;20080;-62
2023/04/08 03:42:23;;;;;;;17.35;4.63;;;23.10;34.70;;;;;;5029220;28;20152;-63
2023/04/08 03:44:49;;;;;;;14.20;5.05;;;23.10;35.30;;;;;;5029343;28;20594;-62
2023/04/08 03:47:16;;;;;;;18.95;4.03;;;23.00;35.00;;;;;;5030421;28;20131;-60
2023/04/08 03:49:42;;;;;;;16.92;4.80;;;23.00;35.60;;;;;;5028585;28;20072;-58
2023/04/08 03:52:08;;;;;;;22.52;4.60;;;22.90;35.50;;;;;;5030262;28;20083;-61
2023/04/08 03:54:35;;;;;;;17.42;4.70;;;22.90;35.90;;;;;;5030075;28;20077;-55
2023/04/08 03:57:01;;;;;;;21.83;5.00;;;22.80;36.40;;;;;;5029292;28;20120;-61
2023/04/08 03:59:27;;;;;;;17.27;4.85;;;22.70;36.40;;;;;;5029577;28;20124;-60
2023/04/08 04:01:54;;;;;;;16.92;5.22;;;22.60;36.70;;;;;;5030060;28;20564;-59
2023/04/08 04:04:20;;;;;;;19.05;5.07;;;22.50;36.70;;;;;;5028346;28;20092;-58
2023/04/08 04:06:47;;;;;;;16.88;5.53;;;22.50;36.70;;;;;;5029075;28;20077;-55
2023/04/08 04:09:14;;;;;;;20.73;5.43;;;22.40;36.50;;;;;;5030532;28;20444;-60
2023/04/08 04:11:40;;;;;;;19.92;5.35;;;22.40;36.60;;;;;;5028881;28;20100;-58
2023/04/08 04:14:06;;;;;;;21.92;5.38;;;22.30;36.80;;;;;;5028922;28;20077;-56
2023/04/08 04:16:33;;;;;;;17.77;5.35;;;22.30;37.50;;;;;;5029141;28;20079;-60
2023/04/08 04:18:59;;;;;;;19.08;5.60;;;22.10;37.00;;;;;;5028879;28;20100;-58
2023/04/08 04:21:26;;;;;;;22.45;6.50;;;22.00;37.00;;;;;;5028137;28;20099;-58
2023/04/08 04:23:52;;;;;;;25.48;6.97;;;22.00;38.30;;;;;;5029494;28;20095;-60
2023/04/08 04:26:18;;;;;;;17.23;6.82;;;21.90;37.30;;;;;;5028760;28;20112;-61
2023/04/08 04:28:45;;;;;;;22.13;6.63;;;21.90;38.60;;;;;;5028947;28;20065;-58
2023/04/08 04:31:22;;;;;;;21.98;6.70;;;21.90;38.70;;;;;;5028900;28;20092;-61
2023/04/08 04:33:48;;;;;;;;;;;21.80;38.10;;;;;;5029062;28;20101;-59
2023/04/08 04:36:15;;;;;;;25.57;7.37;;;21.70;38.70;;;;;;5029602;28;20379;-60
2023/04/08 04:38:44;;;;;;;24.80;7.60;;;21.70;39.70;;;;;;5029135;28;20908;-61
2023/04/08 04:41:11;;;;;;;32.90;7.93;;;21.70;40.10;;;;;;5028568;28;20579;-61
2023/04/08 04:43:37;;;;;;;26.65;7.03;;;21.60;39.30;;;;;;5028994;28;20123;-61
2023/04/08 04:46:06;;;;;;;36.75;7.80;;;21.50;39.10;;;;;;5028350;28;20161;-62
2023/04/08 04:48:33;;;;;;;32.10;8.43;;;21.40;39.30;;;;;;5028420;28;20571;-61
2023/04/08 04:51:01;;;;;;;32.50;8.80;;;21.40;39.50;;;;;;5029346;28;20077;-61
2023/04/08 04:53:29;;;;;;;29.90;8.57;;;21.30;40.00;;;;;;5028459;28;20477;-60
2023/04/08 04:55:55;;;;;;;27.80;8.65;;;21.30;40.60;;;;;;5028121;28;20100;-59
2023/04/08 04:58:21;;;;;;;31.10;9.23;;;21.30;40.10;;;;;;5027811;28;20083;-59
2023/04/08 05:00:48;;;;;;;44.95;9.98;;;21.20;40.10;;;;;;5028394;28;20077;-61
2023/04/08 05:03:15;;;;;;;46.70;10.75;;;21.20;41.60;;;;;;5029505;28;20077;-60
2023/04/08 05:05:41;;;;;;;32.90;8.65;;;21.20;40.80;;;;;;5028337;28;20069;-57
2023/04/08 05:08:08;;;;;;;35.17;9.38;;;21.10;41.20;;;;;;5028438;28;20502;-61
2023/04/08 05:10:34;;;;;;;36.08;10.52;;;21.10;40.50;;;;;;5028329;28;20080;-57
2023/04/08 05:13:00;;;;;;;38.13;11.07;;;21.00;40.50;;;;;;5028311;28;20448;-59
2023/04/08 05:15:27;;;;;;;40.95;14.80;;;21.00;40.00;;;;;;5027819;28;20076;-60
2023/04/08 05:17:53;;;;;;;45.35;15.55;;;21.00;40.30;;;;;;5028946;28;20080;-60
2023/04/08 05:20:20;;;;;;;45.10;14.85;;;20.80;40.10;;;;;;5027530;28;20164;-59
2023/04/08 05:22:46;;;;;;;44.15;15.25;;;20.80;40.40;;;;;;5027729;28;20647;-58
2023/04/08 05:25:12;;;;;;;60.88;17.17;;;20.80;40.00;;;;;;5027740;28;20152;-58
2023/04/08 05:27:41;;;;;;;59.40;16.55;;;20.80;40.80;;;;;;5024632;28;20163;-60
2023/04/08 05:30:08;;;;;;;43.20;16.67;;;20.80;40.90;;;;;;5027064;28;20088;-60
2023/04/08 05:32:35;;;;;;;46.47;16.63;;;20.70;40.80;;;;;;5027753;28;20085;-61
2023/04/08 05:35:05;;;;;;;51.88;19.52;;;20.60;41.00;;;;;;5028068;28;20096;-59
2023/04/08 05:37:31;;;;;;;51.25;18.02;;;20.60;41.80;;;;;;5026277;28;20091;-60
2023/04/08 05:39:57;;;;;;;45.67;17.52;;;20.50;41.40;;;;;;5028975;28;20433;-61
2023/04/08 05:42:24;;;;;;;46.10;15.75;;;20.40;41.40;;;;;;5028420;28;20093;-61
2023/04/08 05:44:50;;;;;;;56.35;16.38;;;20.40;40.60;;;;;;5029109;28;20069;-59
2023/04/08 05:47:16;;;;;;;40.50;14.23;;;20.30;41.60;;;;;;5027939;28;20130;-61
2023/04/08 05:49:43;;;;;;;41.40;14.40;;;20.30;42.30;;;;;;5027900;28;20421;-59
2023/04/08 05:52:09;;;;;;;36.67;14.35;;;20.30;41.80;;;;;;5027537;28;20088;-59
2023/04/08 05:54:36;;;;;;;37.05;12.18;;;20.30;41.60;;;;;;5027915;28;20065;-56
2023/04/08 05:57:02;;;;;;;33.60;12.13;;;20.20;41.20;;;;;;5027847;28;20092;-58
2023/04/08 05:59:28;;;;;;;36.78;11.20;;;20.20;40.80;;;;;;5027618;28;20072;-59
2023/04/08 06:01:55;;;;;;;33.92;10.13;;;20.20;40.40;;;;;;5027892;28;20082;-58
2023/04/08 06:04:22;;;;;;;33.58;9.25;;;20.10;40.90;;;;;;5027139;28;20100;-60
2023/04/08 06:06:48;;;;;;;26.52;8.15;;;20.20;40.20;;;;;;5028296;28;20072;-56
2023/04/08 06:09:14;;;;;;;22.15;6.97;;;20.10;40.10;;;;;;5027970;28;20541;-57
2023/04/08 06:11:41;;;;;;;37.38;7.70;;;20.10;39.40;;;;;;5028491;28;20069;-59
2023/04/08 06:14:08;;;;;;;36.17;7.35;;;20.00;39.80;;;;;;5027596;28;20156;-59
2023/04/08 06:16:34;;;;;;;34.50;7.82;;;19.90;40.30;;;;;;5025914;28;20088;-63
2023/04/08 06:19:01;;;;;;;24.33;6.68;;;20.00;39.80;;;;;;5026585;28;20069;-63
2023/04/08 06:21:27;;;;;;;26.98;6.15;;;19.90;38.10;;;;;;5026045;28;20089;-61
2023/04/08 06:23:53;;;;;;;21.10;6.22;;;19.90;38.80;;;;;;5026538;28;20077;-62
2023/04/08 06:26:20;;;;;;;24.17;9.32;;;19.90;39.00;;;;;;5026636;28;20072;-64
2023/04/08 06:28:46;;;;;;;25.63;6.65;;;19.90;38.10;;;;;;5027003;28;20084;-64
2023/04/08 06:31:13;;;;;;;31.52;7.38;;;19.90;38.20;;;;;;5023231;28;20064;-61
2023/04/08 06:33:39;;;;;;;40.15;6.97;;;19.80;38.30;;;;;;5026436;28;20072;-63
2023/04/08 06:36:07;;;;;;;39.47;7.45;;;19.80;38.60;;;;;;5027088;28;20113;-60
2023/04/08 06:38:33;;;;;;;31.08;6.82;;;19.70;39.00;;;;;;5026031;28;20811;-56
2023/04/08 06:41:06;;;;;;;23.15;6.57;;;19.70;38.80;;;;;;5026729;28;20440;-62
2023/04/08 06:43:34;;;;;;;35.63;6.85;;;19.70;38.70;;;;;;5028478;28;20115;-58
2023/04/08 06:46:00;;;;;;;30.23;6.85;;;19.70;38.90;;;;;;5029459;28;20611;-60
2023/04/08 06:48:29;;;;;;;23.10;6.22;;;19.70;40.10;;;;;;5029433;28;21426;-59
2023/04/08 06:50:59;;;;;;;34.10;6.78;;;19.70;40.10;;;;;;5030654;28;20483;-61
2023/04/08 06:53:28;;;;;;;20.58;6.22;;;19.60;39.70;;;;;;5027172;28;20080;-59
2023/04/08 06:55:55;;;;;;;28.58;9.25;;;19.60;39.70;;;;;;5027320;28;20080;-60
2023/04/08 06:58:21;;;;;;;32.65;17.98;;;19.50;39.70;;;;;;5030457;28;20533;-60
2023/04/08 07:00:47;;;;;;;28.48;11.93;;;19.40;39.50;;;;;;5030326;28;20081;-59
2023/04/08 07:03:14;;;;;;;21.00;7.43;;;19.40;39.30;;;;;;5030074;28;20139;-59
2023/04/08 07:05:41;;;;;;;24.40;7.15;;;19.40;38.40;;;;;;5031027;28;20153;-60
2023/04/08 07:08:07;;;;;;;29.30;6.60;;;19.40;38.30;;;;;;5032041;28;20069;-58
2023/04/08 07:10:37;;;;;;;38.22;6.93;;;19.40;38.20;;;;;;5032264;28;20164;-59
2023/04/08 07:13:03;;;;;;;31.83;6.75;;;19.40;37.90;;;;;;5031961;28;20073;-62
2023/04/08 07:15:30;;;;;;;20.58;6.25;;;19.30;40.20;;;;;;5032060;28;20091;-59
2023/04/08 07:17:57;;;;;;;25.80;6.88;;;19.30;39.60;;;;;;5031722;28;20077;-60
2023/04/08 07:20:24;;;;;;;34.88;6.93;;;19.20;39.20;;;;;;5030955;28;20073;-62
2023/04/08 07:22:51;;;;;;;26.15;6.68;;;19.20;39.30;;;;;;5029584;28;20096;-60
2023/04/08 07:25:17;;;;;;;29.85;6.50;;;19.20;39.10;;;;;;5031070;28;20440;-61
2023/04/08 07:27:44;;;;;;;28.98;7.28;;;19.20;39.50;;;;;;5031560;28;20092;-62
2023/04/08 07:30:11;;;;;;;26.98;5.68;;;19.10;39.40;;;;;;5029858;28;20476;-61
2023/04/08 07:32:38;;;;;;;23.00;5.18;;;19.10;39.30;;;;;;5028351;28;20176;-61
2023/04/08 07:35:04;;;;;;;20.42;5.00;;;19.10;39.70;;;;;;5031017;28;20097;-60
2023/04/08 07:37:31;;;;;;;22.83;5.28;;;19.10;39.50;;;;;;5031037;28;20463;-60
2023/04/08 07:39:57;;;;;;;17.42;4.65;;;19.00;40.30;;;;;;5030413;28;20101;-58
2023/04/08 07:42:24;;;;;;;24.27;4.88;;;19.10;40.20;;;;;;5031403;28;20575;-62
2023/04/08 07:44:51;;;;;;;13.70;4.50;;;19.10;40.00;;;;;;5031046;28;20101;-62
2023/04/08 07:47:17;;;;;;;17.90;3.78;;;19.10;40.40;;;;;;5029806;28;20480;-62
2023/04/08 07:49:46;;;;;;;14.23;3.90;;;19.00;40.40;;;;;;5031942;28;20152;-60
2023/04/08 07:52:13;;;;;;;12.60;4.15;;;19.00;40.20;;;;;;5030438;28;20087;-60
2023/04/08 07:54:39;;;;;;;9.55;3.13;;;19.00;40.30;;;;;;5029237;28;20443;-60
2023/04/08 07:57:06;;;;;;;12.40;3.53;;;18.90;40.20;;;;;;5030179;28;20075;-59
2023/04/08 07:59:32;;;;;;;13.93;3.35;;;19.00;40.30;;;;;;5029879;28;20077;-62
2023/04/08 08:01:58;;;;;;;16.40;3.35;;;19.00;40.20;;;;;;5030468;28;20564;-61
2023/04/08 08:04:25;;;;;;;12.25;3.50;;;19.00;40.10;;;;;;5030055;28;20080;-61
2023/04/08 08:06:51;;;;;;;17.00;3.72;;;19.00;40.50;;;;;;5031122;28;20085;-59
2023/04/08 08:09:18;;;;;;;14.45;3.33;;;19.00;40.40;;;;;;5030594;28;20076;-59
2023/04/08 08:11:44;;;;;;;10.50;2.97;;;19.00;40.30;;;;;;5030756;28;20572;-60
2023/04/08 08:14:12;;;;;;;11.70;2.95;;;19.00;40.40;;;;;;5030049;28;20084;-61
2023/04/08 08:16:39;;;;;;;11.68;3.35;;;19.00;40.60;;;;;;5030101;28;20504;-61
2023/04/08 08:19:06;;;;;;;12.23;3.58;;;19.00;40.70;;;;;;5029859;28;20441;-61
2023/04/08 08:21:35;;;;;;;14.50;3.42;;;19.00;40.40;;;;;;5029709;28;20086;-60
2023/04/08 08:24:01;;;;;;;12.95;3.55;;;19.00;40.60;;;;;;5029879;28;20099;-59
2023/04/08 08:26:27;;;;;;;14.85;3.60;;;19.00;40.70;;;;;;5030431;28;20104;-58
2023/04/08 08:28:54;;;;;;;11.60;3.50;;;19.00;40.60;;;;;;5030313;28;20097;-62
2023/04/08 08:31:20;;;;;;;14.40;4.07;;;19.00;40.60;;;;;;5029012;28;20087;-61
2023/04/08 08:33:47;;;;;;;17.67;3.95;;;19.00;40.80;;;;;;5028259;28;20080;-62
2023/04/08 08:36:13;;;;;;;8.40;3.03;;;18.90;41.10;;;;;;5029395;28;20069;-61
2023/04/08 08:38:40;;;;;;;11.95;4.20;;;18.80;41.30;;;;;;5029644;28;20099;-61
2023/04/08 08:41:06;;;;;;;15.95;4.38;;;18.70;41.20;;;;;;5030731;28;20090;-59
2023/04/08 08:43:33;;;;;;;16.02;4.30;;;18.70;41.60;;;;;;5029795;28;20092;-62
2023/04/08 08:46:00;;;;;;;14.00;3.60;;;18.70;41.80;;;;;;5029538;28;20073;-61
2023/04/08 08:48:27;;;;;;;11.70;3.85;;;18.60;41.80;;;;;;5029306;28;20116;-61
2023/04/08 08:50:53;;;;;;;13.95;3.85;;;18.50;42.00;;;;;;5030126;28;20100;-62
2023/04/08 08:53:22;;;;;;;13.10;3.50;;;18.50;41.90;;;;;;5029553;28;20140;-61
2023/04/08 08:55:48;;;;;;;9.40;3.13;;;18.50;41.90;;;;;;5029333;28;20081;-62
2023/04/08 08:58:15;;;;;;;12.63;3.00;;;18.50;41.70;;;;;;5028222;28;20073;-60
2023/04/08 09:00:43;;;;;;;12.88;3.28;;;18.50;41.50;;;;;;5028764;28;20159;-61
2023/04/08 09:03:19;;;;;;;13.07;2.88;;;18.50;41.10;;;;;;5029180;28;20188;-60
2023/04/08 09:05:56;;;;;;;12.48;3.15;;;18.50;41.00;;;;;;5028683;28;20083;-61
2023/04/08 09:08:23;;;;;;;10.07;2.75;;;18.50;41.00;;;;;;5029176;28;20065;-60
2023/04/08 09:10:50;;;;;;;9.50;2.97;;;18.60;40.80;;;;;;5029759;28;20081;-60
2023/04/08 09:13:16;;;;;;;8.65;3.03;;;18.60;40.80;;;;;;5028127;28;20066;-60
2023/04/08 09:16:03;;;;;;;13.00;3.00;;;18.60;40.60;;;;;;5029490;28;20111;-60
2023/04/08 09:18:31;;;;;;;15.98;3.00;;;18.60;40.70;;;;;;5028470;28;20155;-61
2023/04/08 09:21:00;;;;;;;9.20;2.72;;;18.60;40.50;;;;;;5028811;28;20485;-60
2023/04/08 09:23:47;;;;;;;15.20;3.38;;;18.60;40.40;;;;;;5039248;23;20576;-61
2023/04/08 09:26:16;;;;;;;10.10;2.95;;;18.60;40.50;;;;;;5029154;28;20069;-61
2023/04/08 09:28:44;;;;;;;7.20;2.60;;;18.50;40.50;;;;;;5029333;28;20077;-61
2023/04/08 09:31:23;;;;;;;9.00;2.50;;;18.50;40.80;;;;;;5029445;28;20556;-59
2023/04/08 09:33:55;;;;;;;13.57;2.85;;;18.60;40.50;;;;;;5028345;28;20153;-60
2023/04/08 09:36:22;;;;;;;14.38;3.00;;;18.60;40.50;;;;;;5028819;28;20080;-61
2023/04/08 09:38:49;;;;;;;14.85;3.10;;;18.50;40.50;;;;;;5025271;28;20468;-60
2023/04/08 09:41:17;;;;;;;7.53;2.95;;;18.50;41.10;;;;;;5011876;28;20093;-62
2023/04/08 09:43:55;;;;;;;14.77;2.75;;;18.50;42.70;;;;;;5013042;28;20073;-61
2023/04/08 09:46:51;;;;;;;16.02;3.35;;;18.30;41.90;;;;;;5012990;28;20123;-61
2023/04/08 09:49:46;;;;;;;11.93;2.90;;;18.20;41.60;;;;;;5017489;28;20080;-60
2023/04/08 09:52:46;;;;;;;13.32;3.03;;;18.30;41.50;;;;;;5010583;28;20111;-62
2023/04/08 09:55:13;;;;;;;9.25;3.25;;;18.30;41.90;;;;;;5015787;28;20179;-60
2023/04/08 09:57:54;;;;;;;11.00;2.42;;;18.30;42.20;;;;;;5015942;28;20587;-60
2023/04/08 10:00:24;;;;;;;10.20;2.90;;;18.10;42.90;;;;;;5011576;28;20092;-60
2023/04/08 10:02:59;;;;;;;22.08;14.05;;;18.10;42.50;;;;;;5014517;28;20444;-61
2023/04/08 10:05:26;;;;;;;13.27;7.07;;;17.90;43.30;;;;;;5013925;28;20096;-61
2023/04/08 10:07:55;;;;;;;12.85;3.03;;;17.80;43.70;;;;;;5023679;28;20101;-60
2023/04/08 10:10:22;;;;;;;7.70;2.63;;;17.80;43.30;;;;;;5013023;28;20069;-61
2023/04/08 10:12:49;;;;;;;13.05;3.10;;;17.80;44.40;;;;;;5017200;28;20074;-60
2023/04/08 10:15:24;;;;;;;9.82;2.90;;;17.80;44.10;;;;;;5012827;28;20065;-60
2023/04/08 10:17:51;;;;;;;15.65;3.47;;;17.70;43.90;;;;;;5015143;28;20091;-62
2023/04/08 10:20:50;;;;;;;13.65;3.05;;;17.70;43.80;;;;;;5017534;28;20080;-60
2023/04/08 10:23:18;;;;;;;13.98;3.22;;;17.60;44.50;;;;;;4959797;28;20114;-61
2023/04/08 10:25:46;;;;;;;22.92;3.40;;;17.60;44.20;;;;;;4957304;28;20555;-61
2023/04/08 10:28:13;;;;;;;14.90;3.15;;;17.50;44.00;;;;;;4955726;28;20074;-60
2023/04/08 10:30:40;;;;;;;11.43;3.03;;;17.30;44.40;;;;;;4957194;28;20074;-61
2023/04/08 10:33:17;;;;;;;12.43;3.22;;;17.20;45.70;;;;;;4962680;28;20140;-60
2023/04/08 10:35:48;;;;;;;15.43;3.55;;;17.20;45.00;;;;;;4959021;28;20525;-61
2023/04/08 10:38:15;;;;;;;15.07;3.22;;;17.20;45.00;;;;;;4961426;28;20086;-60
2023/04/08 10:40:43;;;;;;;20.75;3.42;;;17.20;45.10;;;;;;4957138;28;20637;-61
2023/04/08 10:43:13;;;;;;;9.35;2.80;;;17.20;45.00;;;;;;4963682;28;20623;-60
2023/04/08 10:45:41;;;;;;;8.10;2.97;;;17.20;45.60;;;;;;4962766;28;20602;-61
2023/04/08 10:48:18;;;;;;;7.50;3.15;;;17.10;46.00;;;;;;4959105;28;20101;-59
2023/04/08 10:50:55;;;;;;;13.20;3.60;;;17.10;47.50;;;;;;4958779;28;20074;-59
2023/04/08 10:53:29;;;;;;;16.90;3.33;;;17.00;47.70;;;;;;4958401;28;20496;-60
2023/04/08 10:56:09;;;;;;;10.02;3.20;;;17.00;47.70;;;;;;4956289;28;20083;-61
2023/04/08 10:58:46;;;;;;;12.68;3.00;;;17.00;47.10;;;;;;4982742;28;20519;-61
2023/04/08 11:01:12;;;;;;;14.68;3.80;;;16.90;48.20;;;;;;5017960;28;20061;-62
2023/04/08 11:03:39;;;;;;;13.60;3.40;;;16.70;47.50;;;;;;5024593;28;20097;-59
2023/04/08 11:06:06;;;;;;;17.50;3.65;;;16.60;48.00;;;;;;5015984;28;20073;-61
2023/04/08 11:08:33;;;;;;;10.65;3.72;;;16.60;47.80;;;;;;5019207;28;20078;-61
2023/04/08 11:11:07;;;;;;;10.23;3.00;;;16.70;47.40;;;;;;5018046;28;20093;-60
2023/04/08 11:13:42;;;;;;;12.20;3.25;;;16.70;47.50;;;;;;5017322;28;20156;-60
2023/04/08 11:16:09;;;;;;;15.40;3.55;;;16.70;47.20;;;;;;5017916;28;20983;-61
2023/04/08 11:18:38;;;;;;;11.90;2.80;;;16.60;47.90;;;;;;5017892;28;20576;-59
2023/04/08 11:21:14;;;;;;;10.73;3.05;;;16.60;48.10;;;;;;5016694;28;20070;-60
2023/04/08 11:23:42;;;;;;;7.82;3.05;;;16.50;49.20;;;;;;5018675;28;20188;-60
2023/04/08 11:26:09;;;;;;;12.13;3.47;;;16.40;49.10;;;;;;5019443;28;20066;-60
2023/04/08 11:28:36;;;;;;;15.07;4.13;;;16.40;49.20;;;;;;5018214;28;20144;-60
2023/04/08 11:31:03;;;;;;;19.98;4.57;;;16.40;49.10;;;;;;5020382;28;20537;-61
2023/04/08 11:33:33;;;;;;;18.55;3.67;;;16.30;48.30;;;;;;5019269;28;20549;-59
2023/04/08 11:36:05;;;;;;;20.60;5.07;;;16.30;48.60;;;;;;5017907;28;20100;-60
2023/04/08 11:38:31;;;;;;;20.25;4.68;;;16.30;48.50;;;;;;5017212;28;20082;-60
2023/04/08 11:40:59;;;;;;;19.02;5.65;;;16.30;48.70;;;;;;5020154;28;20125;-61
2023/04/08 11:43:25;;;;;;;31.17;6.45;;;16.30;49.00;;;;;;5018321;28;20066;-60
2023/04/08 11:45:52;;;;;;;28.73;6.78;;;16.20;48.20;;;;;;5020106;28;20084;-59
2023/04/08 11:48:19;;;;;;;38.83;8.23;;;16.20;49.00;;;;;;5017427;28;20072;-61
2023/04/08 11:50:45;;;;;;;24.15;7.18;;;16.20;49.40;;;;;;5015740;28;20079;-60
2023/04/08 11:53:19;;;;;;;29.55;8.88;;;16.10;48.50;;;;;;5021624;28;20429;-59
2023/04/08 11:55:47;;;;;;;57.97;15.73;;;16.10;48.80;;;;;;5019277;28;20105;-60
2023/04/08 11:58:14;;;;;;;50.38;16.42;;;16.20;47.90;;;;;;5018436;28;20080;-60
2023/04/08 12:00:41;;;;;;;65.28;18.88;;;16.10;47.30;;;;;;5017708;28;20132;-58
2023/04/08 12:03:08;;;;;;;77.25;21.23;;;16.10;47.20;;;;;;5016988;28;20172;-58
2023/04/08 12:05:35;;;;;;;58.58;19.50;;;16.10;47.30;;;;;;5015959;28;20067;-62
2023/04/08 12:08:02;;;;;;;81.38;22.95;;;16.10;47.30;;;;;;5022512;28;20077;-58
2023/04/08 12:10:29;;;;;;;73.68;21.25;;;16.00;47.40;;;;;;5019629;28;20099;-61
2023/04/08 12:12:55;;;;;;;91.85;23.88;;;16.00;47.70;;;;;;5018577;28;20626;-60
2023/04/08 12:15:22;;;;;;;78.60;22.75;;;15.90;47.50;;;;;;5017144;28;20533;-64
2023/04/08 12:17:48;;;;;;;64.15;23.92;;;15.90;47.40;;;;;;5016274;28;20078;-59
2023/04/08 12:20:16;;;;;;;;;;;15.90;47.50;;;;;;5014958;28;20141;-61
2023/04/08 12:22:42;;;;;;;;;;;15.90;47.90;;;;;;5016044;28;19974;-60
2023/04/08 12:25:08;;;;;;;74.47;22.50;;;15.80;47.50;;;;;;5016838;28;19961;-60
2023/04/08 12:27:35;;;;;;;76.07;23.02;;;15.70;49.00;;;;;;5016519;28;20078;-60
2023/04/08 12:30:02;;;;;;;70.15;21.92;;;15.70;48.40;;;;;;5015942;28;20205;-61
2023/04/08 12:32:29;;;;;;;82.10;22.13;;;15.70;48.60;;;;;;5018538;28;20090;-60
2023/04/08 12:34:55;;;;;;;69.18;23.73;;;15.70;49.20;;;;;;5016742;28;20076;-61
2023/04/08 12:37:22;;;;;;;77.22;21.83;;;15.60;48.90;;;;;;5016299;28;20104;-60
2023/04/08 12:39:48;;;;;;;70.55;22.45;;;15.50;48.60;;;;;;5013844;28;20086;-58
2023/04/08 12:42:15;;;;;;;81.03;24.23;;;15.50;49.10;;;;;;5016120;28;20173;-62
2023/04/08 12:44:41;;;;;;;68.22;24.23;;;15.50;49.50;;;;;;5018173;28;20128;-59